sensor_id;sensor_type;location;lat;lon;timestamp;P1;durP1;ratioP1;P2;durP2;ratioP2
21235;SDS011;10775;42.678;26.324;2024-01-06T00:02:05;3.88;;;2.25;;
21235;SDS011;10775;42.678;26.324;2024-01-06T00:04:30;4.63;;;2.22;;
21235;SDS011;10775;42.678;26.324;2024-01-06T00:06:56;3.25;;;2.00;;
21235;SDS011;10775;42.678;26.324;2024-01-06T00:09:21;3.25;;;2.05;;
21235;SDS011;10775;42.678;26.324;2024-01-06T00:11:47;5.10;;;2.40;;
21235;SDS011;10775;42.678;26.324;2024-01-06T00:14:12;3.47;;;2.00;;
21235;SDS011;10775;42.678;26.324;2024-01-06T00:16:38;4.30;;;2.22;;
21235;SDS011;10775;42.678;26.324;2024-01-06T00:19:03;3.70;;;2.38;;
21235;SDS011;10775;42.678;26.324;2024-01-06T00:21:29;3.38;;;2.25;;
21235;SDS011;10775;42.678;26.324;2024-01-06T00:23:54;3.55;;;2.15;;
21235;SDS011;10775;42.678;26.324;2024-01-06T00:26:22;3.40;;;2.05;;
21235;SDS011;10775;42.678;26.324;2024-01-06T00:28:49;4.90;;;2.15;;
21235;SDS011;10775;42.678;26.324;2024-01-06T00:31:15;3.97;;;2.03;;
21235;SDS011;10775;42.678;26.324;2024-01-06T00:33:42;5.53;;;2.20;;
21235;SDS011;10775;42.678;26.324;2024-01-06T00:36:08;3.78;;;2.40;;
21235;SDS011;10775;42.678;26.324;2024-01-06T00:38:34;3.22;;;2.20;;
21235;SDS011;10775;42.678;26.324;2024-01-06T00:41:00;2.50;;;1.83;;
21235;SDS011;10775;42.678;26.324;2024-01-06T00:43:26;3.22;;;2.08;;
21235;SDS011;10775;42.678;26.324;2024-01-06T00:45:51;3.85;;;1.90;;
21235;SDS011;10775;42.678;26.324;2024-01-06T00:48:17;4.30;;;2.03;;
21235;SDS011;10775;42.678;26.324;2024-01-06T00:50:42;3.33;;;1.80;;
21235;SDS011;10775;42.678;26.324;2024-01-06T00:53:07;2.90;;;1.77;;
21235;SDS011;10775;42.678;26.324;2024-01-06T00:55:33;5.05;;;2.40;;
21235;SDS011;10775;42.678;26.324;2024-01-06T00:57:58;3.97;;;1.90;;
21235;SDS011;10775;42.678;26.324;2024-01-06T01:00:24;3.00;;;1.50;;
21235;SDS011;10775;42.678;26.324;2024-01-06T01:02:49;4.57;;;2.20;;
21235;SDS011;10775;42.678;26.324;2024-01-06T01:05:15;3.45;;;2.08;;
21235;SDS011;10775;42.678;26.324;2024-01-06T01:07:40;2.97;;;1.63;;
21235;SDS011;10775;42.678;26.324;2024-01-06T01:10:06;4.43;;;2.10;;
21235;SDS011;10775;42.678;26.324;2024-01-06T01:12:31;6.32;;;2.45;;
21235;SDS011;10775;42.678;26.324;2024-01-06T01:14:57;3.55;;;1.83;;
21235;SDS011;10775;42.678;26.324;2024-01-06T01:17:22;3.97;;;1.92;;
21235;SDS011;10775;42.678;26.324;2024-01-06T01:19:48;3.35;;;1.88;;
21235;SDS011;10775;42.678;26.324;2024-01-06T01:22:13;4.32;;;1.98;;
21235;SDS011;10775;42.678;26.324;2024-01-06T01:24:39;2.35;;;1.48;;
21235;SDS011;10775;42.678;26.324;2024-01-06T01:27:04;4.47;;;2.00;;
21235;SDS011;10775;42.678;26.324;2024-01-06T01:29:30;5.55;;;2.20;;
21235;SDS011;10775;42.678;26.324;2024-01-06T01:31:56;5.18;;;2.35;;
21235;SDS011;10775;42.678;26.324;2024-01-06T01:34:21;2.53;;;1.75;;
21235;SDS011;10775;42.678;26.324;2024-01-06T01:36:47;2.78;;;1.75;;
21235;SDS011;10775;42.678;26.324;2024-01-06T01:39:12;3.58;;;1.88;;
21235;SDS011;10775;42.678;26.324;2024-01-06T01:41:39;2.60;;;1.50;;
21235;SDS011;10775;42.678;26.324;2024-01-06T01:44:05;1.92;;;1.33;;
21235;SDS011;10775;42.678;26.324;2024-01-06T01:46:30;1.83;;;1.40;;
21235;SDS011;10775;42.678;26.324;2024-01-06T01:48:57;2.58;;;1.80;;
21235;SDS011;10775;42.678;26.324;2024-01-06T01:51:26;2.47;;;1.45;;
21235;SDS011;10775;42.678;26.324;2024-01-06T01:53:54;2.40;;;1.50;;
21235;SDS011;10775;42.678;26.324;2024-01-06T01:56:21;2.55;;;1.52;;
21235;SDS011;10775;42.678;26.324;2024-01-06T01:58:47;4.15;;;2.17;;
21235;SDS011;10775;42.678;26.324;2024-01-06T02:01:13;4.05;;;1.95;;
21235;SDS011;10775;42.678;26.324;2024-01-06T02:03:42;3.33;;;1.45;;
21235;SDS011;10775;42.678;26.324;2024-01-06T02:06:08;2.25;;;1.42;;
21235;SDS011;10775;42.678;26.324;2024-01-06T02:08:34;3.08;;;1.55;;
21235;SDS011;10775;42.678;26.324;2024-01-06T02:11:00;2.63;;;1.55;;
21235;SDS011;10775;42.678;26.324;2024-01-06T02:13:32;2.80;;;1.27;;
21235;SDS011;10775;42.678;26.324;2024-01-06T02:16:04;3.15;;;1.50;;
21235;SDS011;10775;42.678;26.324;2024-01-06T02:18:31;1.50;;;1.20;;
21235;SDS011;10775;42.678;26.324;2024-01-06T02:20:57;2.00;;;1.33;;
21235;SDS011;10775;42.678;26.324;2024-01-06T02:23:24;2.53;;;1.65;;
21235;SDS011;10775;42.678;26.324;2024-01-06T02:25:49;2.38;;;1.45;;
21235;SDS011;10775;42.678;26.324;2024-01-06T02:28:15;2.83;;;1.60;;
21235;SDS011;10775;42.678;26.324;2024-01-06T02:30:40;4.22;;;1.67;;
21235;SDS011;10775;42.678;26.324;2024-01-06T02:33:06;1.92;;;1.35;;
21235;SDS011;10775;42.678;26.324;2024-01-06T02:35:31;2.42;;;1.35;;
21235;SDS011;10775;42.678;26.324;2024-01-06T02:37:57;2.65;;;1.30;;
21235;SDS011;10775;42.678;26.324;2024-01-06T02:40:22;6.63;;;3.20;;
21235;SDS011;10775;42.678;26.324;2024-01-06T02:42:47;6.90;;;2.45;;
21235;SDS011;10775;42.678;26.324;2024-01-06T02:45:13;4.00;;;1.65;;
21235;SDS011;10775;42.678;26.324;2024-01-06T02:47:38;6.60;;;2.65;;
21235;SDS011;10775;42.678;26.324;2024-01-06T02:50:04;5.18;;;1.83;;
21235;SDS011;10775;42.678;26.324;2024-01-06T02:52:30;2.72;;;1.55;;
21235;SDS011;10775;42.678;26.324;2024-01-06T02:54:56;2.35;;;1.52;;
21235;SDS011;10775;42.678;26.324;2024-01-06T02:57:21;3.70;;;1.90;;
21235;SDS011;10775;42.678;26.324;2024-01-06T02:59:47;4.82;;;1.83;;
21235;SDS011;10775;42.678;26.324;2024-01-06T03:02:13;3.88;;;1.90;;
21235;SDS011;10775;42.678;26.324;2024-01-06T03:04:38;4.50;;;2.53;;
21235;SDS011;10775;42.678;26.324;2024-01-06T03:07:04;2.15;;;1.45;;
21235;SDS011;10775;42.678;26.324;2024-01-06T03:09:29;3.97;;;1.80;;
21235;SDS011;10775;42.678;26.324;2024-01-06T03:11:55;2.33;;;1.40;;
21235;SDS011;10775;42.678;26.324;2024-01-06T03:14:21;2.75;;;1.40;;
21235;SDS011;10775;42.678;26.324;2024-01-06T03:16:46;2.53;;;1.40;;
21235;SDS011;10775;42.678;26.324;2024-01-06T03:19:12;2.83;;;1.55;;
21235;SDS011;10775;42.678;26.324;2024-01-06T03:21:37;2.88;;;1.90;;
21235;SDS011;10775;42.678;26.324;2024-01-06T03:24:03;4.32;;;1.90;;
21235;SDS011;10775;42.678;26.324;2024-01-06T03:26:29;2.78;;;1.50;;
21235;SDS011;10775;42.678;26.324;2024-01-06T03:28:54;3.33;;;1.90;;
21235;SDS011;10775;42.678;26.324;2024-01-06T03:31:21;2.67;;;1.45;;
21235;SDS011;10775;42.678;26.324;2024-01-06T03:33:47;2.38;;;1.60;;
21235;SDS011;10775;42.678;26.324;2024-01-06T03:36:13;6.78;;;1.90;;
21235;SDS011;10775;42.678;26.324;2024-01-06T03:38:40;4.10;;;2.08;;
21235;SDS011;10775;42.678;26.324;2024-01-06T03:41:06;2.80;;;1.42;;
21235;SDS011;10775;42.678;26.324;2024-01-06T03:43:32;2.92;;;1.13;;
21235;SDS011;10775;42.678;26.324;2024-01-06T03:45:58;2.38;;;1.40;;
21235;SDS011;10775;42.678;26.324;2024-01-06T03:48:25;4.32;;;1.85;;
21235;SDS011;10775;42.678;26.324;2024-01-06T03:50:50;2.47;;;1.50;;
21235;SDS011;10775;42.678;26.324;2024-01-06T03:53:16;1.77;;;1.20;;
21235;SDS011;10775;42.678;26.324;2024-01-06T03:55:41;1.90;;;1.40;;
21235;SDS011;10775;42.678;26.324;2024-01-06T03:58:07;2.10;;;1.33;;
21235;SDS011;10775;42.678;26.324;2024-01-06T04:00:32;2.25;;;1.42;;
21235;SDS011;10775;42.678;26.324;2024-01-06T04:02:58;2.97;;;1.58;;
21235;SDS011;10775;42.678;26.324;2024-01-06T04:05:23;3.70;;;1.35;;
21235;SDS011;10775;42.678;26.324;2024-01-06T04:07:48;3.70;;;2.17;;
21235;SDS011;10775;42.678;26.324;2024-01-06T04:10:14;2.80;;;1.88;;
21235;SDS011;10775;42.678;26.324;2024-01-06T04:12:39;2.30;;;1.48;;
21235;SDS011;10775;42.678;26.324;2024-01-06T04:15:05;5.50;;;2.78;;
21235;SDS011;10775;42.678;26.324;2024-01-06T04:17:31;2.15;;;1.50;;
21235;SDS011;10775;42.678;26.324;2024-01-06T04:19:56;5.20;;;2.95;;
21235;SDS011;10775;42.678;26.324;2024-01-06T04:22:21;4.22;;;2.10;;
21235;SDS011;10775;42.678;26.324;2024-01-06T04:24:47;3.13;;;1.90;;
21235;SDS011;10775;42.678;26.324;2024-01-06T04:27:12;3.00;;;1.63;;
21235;SDS011;10775;42.678;26.324;2024-01-06T04:29:38;2.47;;;1.67;;
21235;SDS011;10775;42.678;26.324;2024-01-06T04:32:04;2.88;;;1.60;;
21235;SDS011;10775;42.678;26.324;2024-01-06T04:34:30;2.47;;;1.70;;
21235;SDS011;10775;42.678;26.324;2024-01-06T04:36:55;3.90;;;1.75;;
21235;SDS011;10775;42.678;26.324;2024-01-06T04:39:21;2.75;;;1.52;;
21235;SDS011;10775;42.678;26.324;2024-01-06T04:41:46;4.93;;;1.88;;
21235;SDS011;10775;42.678;26.324;2024-01-06T04:44:11;4.45;;;2.00;;
21235;SDS011;10775;42.678;26.324;2024-01-06T04:46:37;2.47;;;1.40;;
21235;SDS011;10775;42.678;26.324;2024-01-06T04:49:02;3.17;;;1.80;;
21235;SDS011;10775;42.678;26.324;2024-01-06T04:51:28;2.67;;;1.60;;
21235;SDS011;10775;42.678;26.324;2024-01-06T04:53:54;3.45;;;1.77;;
21235;SDS011;10775;42.678;26.324;2024-01-06T04:56:19;1.95;;;1.30;;
21235;SDS011;10775;42.678;26.324;2024-01-06T04:58:45;4.75;;;1.90;;
21235;SDS011;10775;42.678;26.324;2024-01-06T05:01:10;5.53;;;1.98;;
21235;SDS011;10775;42.678;26.324;2024-01-06T05:03:36;4.05;;;2.17;;
21235;SDS011;10775;42.678;26.324;2024-01-06T05:06:01;5.03;;;2.20;;
21235;SDS011;10775;42.678;26.324;2024-01-06T05:08:27;3.40;;;1.35;;
21235;SDS011;10775;42.678;26.324;2024-01-06T05:10:52;2.67;;;1.65;;
21235;SDS011;10775;42.678;26.324;2024-01-06T05:13:19;3.70;;;2.20;;
21235;SDS011;10775;42.678;26.324;2024-01-06T05:15:44;3.78;;;1.77;;
21235;SDS011;10775;42.678;26.324;2024-01-06T05:18:09;2.58;;;1.30;;
21235;SDS011;10775;42.678;26.324;2024-01-06T05:20:35;3.60;;;2.03;;
21235;SDS011;10775;42.678;26.324;2024-01-06T05:23:00;3.25;;;2.13;;
21235;SDS011;10775;42.678;26.324;2024-01-06T05:25:26;2.90;;;1.60;;
21235;SDS011;10775;42.678;26.324;2024-01-06T05:27:51;3.50;;;1.55;;
21235;SDS011;10775;42.678;26.324;2024-01-06T05:30:17;3.42;;;2.05;;
21235;SDS011;10775;42.678;26.324;2024-01-06T05:32:43;3.20;;;1.85;;
21235;SDS011;10775;42.678;26.324;2024-01-06T05:35:08;2.05;;;1.85;;
21235;SDS011;10775;42.678;26.324;2024-01-06T05:37:34;2.08;;;1.48;;
21235;SDS011;10775;42.678;26.324;2024-01-06T05:39:59;2.47;;;1.30;;
21235;SDS011;10775;42.678;26.324;2024-01-06T05:42:27;6.85;;;2.95;;
21235;SDS011;10775;42.678;26.324;2024-01-06T05:44:53;3.15;;;1.63;;
21235;SDS011;10775;42.678;26.324;2024-01-06T05:47:19;5.85;;;2.95;;
21235;SDS011;10775;42.678;26.324;2024-01-06T05:49:45;3.28;;;1.90;;
21235;SDS011;10775;42.678;26.324;2024-01-06T05:52:10;2.38;;;1.58;;
21235;SDS011;10775;42.678;26.324;2024-01-06T05:54:36;4.43;;;2.88;;
21235;SDS011;10775;42.678;26.324;2024-01-06T05:57:01;2.40;;;1.40;;
21235;SDS011;10775;42.678;26.324;2024-01-06T05:59:27;2.53;;;1.50;;
21235;SDS011;10775;42.678;26.324;2024-01-06T06:01:53;3.50;;;2.10;;
21235;SDS011;10775;42.678;26.324;2024-01-06T06:04:18;2.35;;;1.77;;
21235;SDS011;10775;42.678;26.324;2024-01-06T06:06:44;1.63;;;1.30;;
21235;SDS011;10775;42.678;26.324;2024-01-06T06:09:09;26.08;;;13.52;;
21235;SDS011;10775;42.678;26.324;2024-01-06T06:11:35;7.28;;;3.83;;
21235;SDS011;10775;42.678;26.324;2024-01-06T06:14:01;6.88;;;3.35;;
21235;SDS011;10775;42.678;26.324;2024-01-06T06:16:30;8.27;;;4.20;;
21235;SDS011;10775;42.678;26.324;2024-01-06T06:18:55;11.23;;;6.57;;
21235;SDS011;10775;42.678;26.324;2024-01-06T06:21:21;8.57;;;4.55;;
21235;SDS011;10775;42.678;26.324;2024-01-06T06:23:46;5.68;;;3.28;;
21235;SDS011;10775;42.678;26.324;2024-01-06T06:26:12;2.80;;;1.75;;
21235;SDS011;10775;42.678;26.324;2024-01-06T06:28:38;2.17;;;1.70;;
21235;SDS011;10775;42.678;26.324;2024-01-06T06:31:03;15.23;;;7.85;;
21235;SDS011;10775;42.678;26.324;2024-01-06T06:33:29;14.27;;;6.20;;
21235;SDS011;10775;42.678;26.324;2024-01-06T06:35:54;7.57;;;4.00;;
21235;SDS011;10775;42.678;26.324;2024-01-06T06:38:20;5.15;;;2.47;;
21235;SDS011;10775;42.678;26.324;2024-01-06T06:40:46;4.60;;;2.60;;
21235;SDS011;10775;42.678;26.324;2024-01-06T06:43:12;3.78;;;2.47;;
21235;SDS011;10775;42.678;26.324;2024-01-06T06:45:38;19.98;;;12.20;;
21235;SDS011;10775;42.678;26.324;2024-01-06T06:48:04;7.20;;;4.03;;
21235;SDS011;10775;42.678;26.324;2024-01-06T06:50:29;14.38;;;7.43;;
21235;SDS011;10775;42.678;26.324;2024-01-06T06:52:55;24.58;;;12.05;;
21235;SDS011;10775;42.678;26.324;2024-01-06T06:55:21;23.48;;;11.35;;
21235;SDS011;10775;42.678;26.324;2024-01-06T06:57:46;18.77;;;10.48;;
21235;SDS011;10775;42.678;26.324;2024-01-06T07:00:12;16.33;;;9.70;;
21235;SDS011;10775;42.678;26.324;2024-01-06T07:02:38;14.52;;;8.55;;
21235;SDS011;10775;42.678;26.324;2024-01-06T07:05:03;21.98;;;12.60;;
21235;SDS011;10775;42.678;26.324;2024-01-06T07:07:32;12.32;;;7.22;;
21235;SDS011;10775;42.678;26.324;2024-01-06T07:09:58;13.07;;;7.47;;
21235;SDS011;10775;42.678;26.324;2024-01-06T07:12:25;14.48;;;6.15;;
21235;SDS011;10775;42.678;26.324;2024-01-06T07:14:52;14.68;;;8.27;;
21235;SDS011;10775;42.678;26.324;2024-01-06T07:17:17;7.50;;;4.45;;
21235;SDS011;10775;42.678;26.324;2024-01-06T07:19:43;6.68;;;3.95;;
21235;SDS011;10775;42.678;26.324;2024-01-06T07:22:08;17.38;;;10.18;;
21235;SDS011;10775;42.678;26.324;2024-01-06T07:24:34;17.48;;;9.60;;
21235;SDS011;10775;42.678;26.324;2024-01-06T07:27:01;20.27;;;12.60;;
21235;SDS011;10775;42.678;26.324;2024-01-06T07:29:28;10.85;;;6.15;;
21235;SDS011;10775;42.678;26.324;2024-01-06T07:31:53;18.92;;;11.10;;
21235;SDS011;10775;42.678;26.324;2024-01-06T07:34:19;16.30;;;8.43;;
21235;SDS011;10775;42.678;26.324;2024-01-06T07:36:44;9.90;;;6.15;;
21235;SDS011;10775;42.678;26.324;2024-01-06T07:39:10;12.45;;;6.75;;
21235;SDS011;10775;42.678;26.324;2024-01-06T07:41:35;5.80;;;3.33;;
21235;SDS011;10775;42.678;26.324;2024-01-06T07:44:01;14.43;;;7.60;;
21235;SDS011;10775;42.678;26.324;2024-01-06T07:46:27;19.13;;;10.25;;
21235;SDS011;10775;42.678;26.324;2024-01-06T07:48:53;21.55;;;11.27;;
21235;SDS011;10775;42.678;26.324;2024-01-06T07:51:19;12.43;;;7.05;;
21235;SDS011;10775;42.678;26.324;2024-01-06T07:53:45;32.33;;;15.38;;
21235;SDS011;10775;42.678;26.324;2024-01-06T07:56:10;31.52;;;15.55;;
21235;SDS011;10775;42.678;26.324;2024-01-06T07:58:36;23.67;;;12.32;;
21235;SDS011;10775;42.678;26.324;2024-01-06T08:01:01;28.92;;;14.60;;
21235;SDS011;10775;42.678;26.324;2024-01-06T08:03:26;32.85;;;16.23;;
21235;SDS011;10775;42.678;26.324;2024-01-06T08:05:52;30.00;;;14.70;;
21235;SDS011;10775;42.678;26.324;2024-01-06T08:08:17;11.90;;;6.57;;
21235;SDS011;10775;42.678;26.324;2024-01-06T08:10:44;30.15;;;17.40;;
21235;SDS011;10775;42.678;26.324;2024-01-06T08:13:09;28.55;;;14.52;;
21235;SDS011;10775;42.678;26.324;2024-01-06T08:15:35;25.02;;;12.45;;
21235;SDS011;10775;42.678;26.324;2024-01-06T08:18:00;29.25;;;14.85;;
21235;SDS011;10775;42.678;26.324;2024-01-06T08:20:26;29.08;;;15.18;;
21235;SDS011;10775;42.678;26.324;2024-01-06T08:22:51;42.42;;;20.98;;
21235;SDS011;10775;42.678;26.324;2024-01-06T08:25:17;43.13;;;21.17;;
21235;SDS011;10775;42.678;26.324;2024-01-06T08:27:43;32.40;;;17.02;;
21235;SDS011;10775;42.678;26.324;2024-01-06T08:30:08;42.83;;;21.42;;
21235;SDS011;10775;42.678;26.324;2024-01-06T08:32:34;26.75;;;12.98;;
21235;SDS011;10775;42.678;26.324;2024-01-06T08:34:59;48.20;;;19.90;;
21235;SDS011;10775;42.678;26.324;2024-01-06T08:37:25;40.03;;;19.80;;
21235;SDS011;10775;42.678;26.324;2024-01-06T08:39:50;49.67;;;21.23;;
21235;SDS011;10775;42.678;26.324;2024-01-06T08:42:16;66.07;;;26.00;;
21235;SDS011;10775;42.678;26.324;2024-01-06T08:44:41;66.38;;;24.25;;
21235;SDS011;10775;42.678;26.324;2024-01-06T08:47:08;60.58;;;24.27;;
21235;SDS011;10775;42.678;26.324;2024-01-06T08:49:34;51.05;;;24.30;;
21235;SDS011;10775;42.678;26.324;2024-01-06T08:52:00;64.75;;;28.10;;
21235;SDS011;10775;42.678;26.324;2024-01-06T08:54:25;53.70;;;25.48;;
21235;SDS011;10775;42.678;26.324;2024-01-06T08:56:50;47.60;;;24.95;;
21235;SDS011;10775;42.678;26.324;2024-01-06T08:59:16;49.40;;;25.63;;
21235;SDS011;10775;42.678;26.324;2024-01-06T09:01:41;49.03;;;25.08;;
21235;SDS011;10775;42.678;26.324;2024-01-06T09:04:07;47.10;;;23.70;;
21235;SDS011;10775;42.678;26.324;2024-01-06T09:06:33;37.20;;;20.38;;
21235;SDS011;10775;42.678;26.324;2024-01-06T09:08:58;39.45;;;22.15;;
21235;SDS011;10775;42.678;26.324;2024-01-06T09:11:23;43.17;;;20.50;;
21235;SDS011;10775;42.678;26.324;2024-01-06T09:13:49;40.13;;;20.35;;
21235;SDS011;10775;42.678;26.324;2024-01-06T09:16:17;49.15;;;26.67;;
21235;SDS011;10775;42.678;26.324;2024-01-06T09:18:44;55.25;;;27.88;;
21235;SDS011;10775;42.678;26.324;2024-01-06T09:21:09;54.25;;;29.70;;
21235;SDS011;10775;42.678;26.324;2024-01-06T09:23:35;49.85;;;27.08;;
21235;SDS011;10775;42.678;26.324;2024-01-06T09:26:00;54.83;;;27.23;;
21235;SDS011;10775;42.678;26.324;2024-01-06T09:28:26;57.55;;;29.58;;
21235;SDS011;10775;42.678;26.324;2024-01-06T09:30:51;57.80;;;28.95;;
21235;SDS011;10775;42.678;26.324;2024-01-06T09:33:19;50.00;;;26.13;;
21235;SDS011;10775;42.678;26.324;2024-01-06T09:35:45;46.88;;;24.00;;
21235;SDS011;10775;42.678;26.324;2024-01-06T09:38:10;47.78;;;25.20;;
21235;SDS011;10775;42.678;26.324;2024-01-06T09:40:36;40.30;;;21.05;;
21235;SDS011;10775;42.678;26.324;2024-01-06T09:43:11;48.38;;;23.00;;
21235;SDS011;10775;42.678;26.324;2024-01-06T09:45:37;44.70;;;21.40;;
21235;SDS011;10775;42.678;26.324;2024-01-06T09:48:10;43.15;;;22.27;;
21235;SDS011;10775;42.678;26.324;2024-01-06T09:50:40;29.88;;;14.27;;
21235;SDS011;10775;42.678;26.324;2024-01-06T09:53:10;24.33;;;13.40;;
21235;SDS011;10775;42.678;26.324;2024-01-06T09:55:36;32.72;;;16.63;;
21235;SDS011;10775;42.678;26.324;2024-01-06T09:58:03;24.27;;;13.07;;
21235;SDS011;10775;42.678;26.324;2024-01-06T10:00:30;17.35;;;9.23;;
21235;SDS011;10775;42.678;26.324;2024-01-06T10:02:55;18.50;;;9.40;;
21235;SDS011;10775;42.678;26.324;2024-01-06T10:05:21;32.00;;;15.43;;
21235;SDS011;10775;42.678;26.324;2024-01-06T10:07:46;25.77;;;14.43;;
21235;SDS011;10775;42.678;26.324;2024-01-06T10:10:13;23.65;;;12.80;;
21235;SDS011;10775;42.678;26.324;2024-01-06T10:12:40;29.85;;;14.52;;
21235;SDS011;10775;42.678;26.324;2024-01-06T10:15:10;20.80;;;10.75;;
21235;SDS011;10775;42.678;26.324;2024-01-06T10:17:39;19.60;;;10.88;;
21235;SDS011;10775;42.678;26.324;2024-01-06T10:20:09;19.27;;;10.13;;
21235;SDS011;10775;42.678;26.324;2024-01-06T10:25:02;15.77;;;8.77;;
21235;SDS011;10775;42.678;26.324;2024-01-06T10:27:30;24.60;;;12.10;;
21235;SDS011;10775;42.678;26.324;2024-01-06T10:29:56;24.35;;;11.60;;
21235;SDS011;10775;42.678;26.324;2024-01-06T10:32:21;22.02;;;10.55;;
21235;SDS011;10775;42.678;26.324;2024-01-06T10:34:51;23.27;;;10.20;;
21235;SDS011;10775;42.678;26.324;2024-01-06T10:37:16;19.13;;;10.88;;
21235;SDS011;10775;42.678;26.324;2024-01-06T10:39:42;19.85;;;10.68;;
21235;SDS011;10775;42.678;26.324;2024-01-06T10:42:08;24.27;;;12.38;;
21235;SDS011;10775;42.678;26.324;2024-01-06T10:44:34;34.65;;;18.33;;
21235;SDS011;10775;42.678;26.324;2024-01-06T10:47:00;18.23;;;10.25;;
21235;SDS011;10775;42.678;26.324;2024-01-06T10:49:28;18.05;;;10.38;;
21235;SDS011;10775;42.678;26.324;2024-01-06T10:51:55;22.23;;;11.07;;
21235;SDS011;10775;42.678;26.324;2024-01-06T10:54:23;24.15;;;11.63;;
21235;SDS011;10775;42.678;26.324;2024-01-06T10:56:49;25.00;;;12.15;;
21235;SDS011;10775;42.678;26.324;2024-01-06T10:59:17;21.77;;;11.45;;
21235;SDS011;10775;42.678;26.324;2024-01-06T11:01:46;23.20;;;13.33;;
21235;SDS011;10775;42.678;26.324;2024-01-06T11:04:13;19.25;;;10.77;;
21235;SDS011;10775;42.678;26.324;2024-01-06T11:06:39;18.55;;;9.70;;
21235;SDS011;10775;42.678;26.324;2024-01-06T11:09:13;16.80;;;9.38;;
21235;SDS011;10775;42.678;26.324;2024-01-06T11:11:44;19.17;;;9.27;;
21235;SDS011;10775;42.678;26.324;2024-01-06T11:14:17;14.82;;;8.55;;
21235;SDS011;10775;42.678;26.324;2024-01-06T11:16:50;20.13;;;9.25;;
21235;SDS011;10775;42.678;26.324;2024-01-06T11:22:19;19.17;;;8.80;;
21235;SDS011;10775;42.678;26.324;2024-01-06T11:24:48;17.77;;;8.80;;
21235;SDS011;10775;42.678;26.324;2024-01-06T11:27:18;14.98;;;9.07;;
21235;SDS011;10775;42.678;26.324;2024-01-06T11:29:48;18.63;;;9.38;;
21235;SDS011;10775;42.678;26.324;2024-01-06T11:32:17;17.38;;;9.35;;
21235;SDS011;10775;42.678;26.324;2024-01-06T11:34:51;25.15;;;11.80;;
21235;SDS011;10775;42.678;26.324;2024-01-06T11:37:24;21.90;;;10.65;;
21235;SDS011;10775;42.678;26.324;2024-01-06T11:39:58;21.30;;;9.80;;
21235;SDS011;10775;42.678;26.324;2024-01-06T11:42:31;17.50;;;9.00;;
21235;SDS011;10775;42.678;26.324;2024-01-06T11:44:57;15.35;;;8.75;;
21235;SDS011;10775;42.678;26.324;2024-01-06T11:47:26;27.40;;;12.27;;
21235;SDS011;10775;42.678;26.324;2024-01-06T11:49:55;25.92;;;11.88;;
21235;SDS011;10775;42.678;26.324;2024-01-06T11:52:23;17.85;;;8.65;;
21235;SDS011;10775;42.678;26.324;2024-01-06T11:54:50;19.65;;;9.57;;
21235;SDS011;10775;42.678;26.324;2024-01-06T11:57:17;17.08;;;9.10;;
21235;SDS011;10775;42.678;26.324;2024-01-06T11:59:43;18.10;;;9.65;;
21235;SDS011;10775;42.678;26.324;2024-01-06T12:02:11;15.27;;;8.48;;
21235;SDS011;10775;42.678;26.324;2024-01-06T12:04:38;18.83;;;9.90;;
21235;SDS011;10775;42.678;26.324;2024-01-06T12:07:09;19.55;;;10.70;;
21235;SDS011;10775;42.678;26.324;2024-01-06T12:09:38;24.25;;;11.43;;
21235;SDS011;10775;42.678;26.324;2024-01-06T12:12:04;31.55;;;13.88;;
21235;SDS011;10775;42.678;26.324;2024-01-06T12:14:34;20.85;;;11.80;;
21235;SDS011;10775;42.678;26.324;2024-01-06T12:16:59;26.25;;;13.55;;
21235;SDS011;10775;42.678;26.324;2024-01-06T12:19:31;31.88;;;14.88;;
21235;SDS011;10775;42.678;26.324;2024-01-06T12:21:58;24.73;;;13.13;;
21235;SDS011;10775;42.678;26.324;2024-01-06T12:24:23;25.63;;;13.73;;
21235;SDS011;10775;42.678;26.324;2024-01-06T12:26:49;28.08;;;13.57;;
21235;SDS011;10775;42.678;26.324;2024-01-06T12:29:16;25.08;;;14.38;;
21235;SDS011;10775;42.678;26.324;2024-01-06T12:31:43;29.48;;;15.35;;
21235;SDS011;10775;42.678;26.324;2024-01-06T12:34:09;30.67;;;16.52;;
21235;SDS011;10775;42.678;26.324;2024-01-06T12:36:38;29.00;;;16.08;;
21235;SDS011;10775;42.678;26.324;2024-01-06T12:41:36;25.80;;;14.03;;
21235;SDS011;10775;42.678;26.324;2024-01-06T12:44:03;30.90;;;15.50;;
21235;SDS011;10775;42.678;26.324;2024-01-06T12:46:28;27.40;;;15.32;;
21235;SDS011;10775;42.678;26.324;2024-01-06T12:48:54;35.08;;;19.15;;
21235;SDS011;10775;42.678;26.324;2024-01-06T12:51:20;30.88;;;17.50;;
21235;SDS011;10775;42.678;26.324;2024-01-06T12:53:45;28.90;;;17.50;;
21235;SDS011;10775;42.678;26.324;2024-01-06T12:56:10;28.75;;;15.10;;
21235;SDS011;10775;42.678;26.324;2024-01-06T12:58:36;26.92;;;13.20;;
21235;SDS011;10775;42.678;26.324;2024-01-06T13:01:01;23.08;;;13.68;;
21235;SDS011;10775;42.678;26.324;2024-01-06T13:03:27;24.73;;;13.88;;
21235;SDS011;10775;42.678;26.324;2024-01-06T13:05:53;26.25;;;14.02;;
21235;SDS011;10775;42.678;26.324;2024-01-06T13:08:19;29.05;;;15.30;;
21235;SDS011;10775;42.678;26.324;2024-01-06T13:10:45;32.90;;;15.48;;
21235;SDS011;10775;42.678;26.324;2024-01-06T13:13:10;35.35;;;16.92;;
21235;SDS011;10775;42.678;26.324;2024-01-06T13:15:36;29.83;;;16.30;;
21235;SDS011;10775;42.678;26.324;2024-01-06T13:18:01;31.88;;;18.02;;
21235;SDS011;10775;42.678;26.324;2024-01-06T13:20:27;35.42;;;20.13;;
21235;SDS011;10775;42.678;26.324;2024-01-06T13:22:52;34.40;;;19.48;;
21235;SDS011;10775;42.678;26.324;2024-01-06T13:25:18;35.53;;;19.90;;
21235;SDS011;10775;42.678;26.324;2024-01-06T13:27:45;37.92;;;19.60;;
21235;SDS011;10775;42.678;26.324;2024-01-06T13:30:10;33.65;;;18.42;;
21235;SDS011;10775;42.678;26.324;2024-01-06T13:32:38;34.33;;;15.75;;
21235;SDS011;10775;42.678;26.324;2024-01-06T13:35:03;24.73;;;13.20;;
21235;SDS011;10775;42.678;26.324;2024-01-06T13:37:33;24.55;;;13.25;;
21235;SDS011;10775;42.678;26.324;2024-01-06T13:39:59;23.52;;;12.55;;
21235;SDS011;10775;42.678;26.324;2024-01-06T13:42:24;23.90;;;12.40;;
21235;SDS011;10775;42.678;26.324;2024-01-06T13:44:50;21.75;;;11.95;;
21235;SDS011;10775;42.678;26.324;2024-01-06T13:47:15;19.08;;;11.57;;
21235;SDS011;10775;42.678;26.324;2024-01-06T13:49:41;22.15;;;10.98;;
21235;SDS011;10775;42.678;26.324;2024-01-06T13:52:06;21.83;;;10.15;;
21235;SDS011;10775;42.678;26.324;2024-01-06T13:54:35;27.17;;;11.10;;
21235;SDS011;10775;42.678;26.324;2024-01-06T13:57:00;23.60;;;11.18;;
21235;SDS011;10775;42.678;26.324;2024-01-06T13:59:26;19.02;;;10.43;;
21235;SDS011;10775;42.678;26.324;2024-01-06T14:01:51;18.42;;;10.88;;
21235;SDS011;10775;42.678;26.324;2024-01-06T14:04:17;20.58;;;9.55;;
21235;SDS011;10775;42.678;26.324;2024-01-06T14:06:43;21.73;;;9.77;;
21235;SDS011;10775;42.678;26.324;2024-01-06T14:09:08;16.58;;;9.77;;
21235;SDS011;10775;42.678;26.324;2024-01-06T14:11:34;17.85;;;9.48;;
21235;SDS011;10775;42.678;26.324;2024-01-06T14:13:59;21.88;;;10.30;;
21235;SDS011;10775;42.678;26.324;2024-01-06T14:16:25;20.70;;;11.43;;
21235;SDS011;10775;42.678;26.324;2024-01-06T14:18:51;27.35;;;13.63;;
21235;SDS011;10775;42.678;26.324;2024-01-06T14:21:17;24.85;;;13.60;;
21235;SDS011;10775;42.678;26.324;2024-01-06T14:23:47;27.38;;;14.32;;
21235;SDS011;10775;42.678;26.324;2024-01-06T14:26:14;26.13;;;13.75;;